sensor_id;sensor_type;location;lat;lon;timestamp;P1;durP1;ratioP1;P2;durP2;ratioP2
3487;SDS011;38546;48.170;11.724;2022-11-15T00:02:12;14.13;;;9.03;;
3487;SDS011;38546;48.170;11.724;2022-11-15T00:05:02;15.37;;;8.90;;
3487;SDS011;38546;48.170;11.724;2022-11-15T00:07:52;12.33;;;8.80;;
3487;SDS011;38546;48.170;11.724;2022-11-15T00:10:41;12.40;;;8.40;;
3487;SDS011;38546;48.170;11.724;2022-11-15T00:13:31;16.30;;;10.00;;
3487;SDS011;38546;48.170;11.724;2022-11-15T00:16:20;13.83;;;8.40;;
3487;SDS011;38546;48.170;11.724;2022-11-15T00:19:10;13.80;;;10.00;;
3487;SDS011;38546;48.170;11.724;2022-11-15T00:21:59;12.90;;;8.60;;
3487;SDS011;38546;48.170;11.724;2022-11-15T00:24:48;15.47;;;9.27;;
3487;SDS011;38546;48.170;11.724;2022-11-15T00:27:38;13.20;;;9.47;;
3487;SDS011;38546;48.170;11.724;2022-11-15T00:30:27;14.27;;;8.43;;
3487;SDS011;38546;48.170;11.724;2022-11-15T00:33:17;12.93;;;8.13;;
3487;SDS011;38546;48.170;11.724;2022-11-15T00:36:08;15.00;;;8.73;;
3487;SDS011;38546;48.170;11.724;2022-11-15T00:38:58;10.50;;;8.00;;
3487;SDS011;38546;48.170;11.724;2022-11-15T00:41:47;13.97;;;9.10;;
3487;SDS011;38546;48.170;11.724;2022-11-15T00:44:36;10.37;;;7.73;;
3487;SDS011;38546;48.170;11.724;2022-11-15T00:47:25;10.50;;;8.37;;
3487;SDS011;38546;48.170;11.724;2022-11-15T00:50:15;14.23;;;10.13;;
3487;SDS011;38546;48.170;11.724;2022-11-15T00:53:05;13.00;;;8.43;;
3487;SDS011;38546;48.170;11.724;2022-11-15T00:55:54;17.37;;;9.50;;
3487;SDS011;38546;48.170;11.724;2022-11-15T00:58:43;10.73;;;8.83;;
3487;SDS011;38546;48.170;11.724;2022-11-15T01:01:32;13.67;;;9.27;;
3487;SDS011;38546;48.170;11.724;2022-11-15T01:04:22;15.30;;;10.33;;
3487;SDS011;38546;48.170;11.724;2022-11-15T01:07:11;15.63;;;9.27;;
3487;SDS011;38546;48.170;11.724;2022-11-15T01:10:00;15.67;;;9.10;;
3487;SDS011;38546;48.170;11.724;2022-11-15T01:12:50;12.07;;;8.73;;
3487;SDS011;38546;48.170;11.724;2022-11-15T01:15:40;11.60;;;8.20;;
3487;SDS011;38546;48.170;11.724;2022-11-15T01:18:30;14.87;;;8.70;;
3487;SDS011;38546;48.170;11.724;2022-11-15T01:21:19;14.10;;;9.70;;
3487;SDS011;38546;48.170;11.724;2022-11-15T01:24:10;14.40;;;9.07;;
3487;SDS011;38546;48.170;11.724;2022-11-15T01:27:01;12.87;;;9.07;;
3487;SDS011;38546;48.170;11.724;2022-11-15T01:29:50;13.07;;;9.10;;
3487;SDS011;38546;48.170;11.724;2022-11-15T01:32:39;14.33;;;9.70;;
3487;SDS011;38546;48.170;11.724;2022-11-15T01:35:28;16.53;;;10.20;;
3487;SDS011;38546;48.170;11.724;2022-11-15T01:38:17;19.07;;;11.37;;
3487;SDS011;38546;48.170;11.724;2022-11-15T01:41:13;15.47;;;10.27;;
3487;SDS011;38546;48.170;11.724;2022-11-15T01:47:35;17.60;;;9.20;;
3487;SDS011;38546;48.170;11.724;2022-11-15T01:50:30;16.47;;;9.80;;
3487;SDS011;38546;48.170;11.724;2022-11-15T01:53:21;14.40;;;10.23;;
3487;SDS011;38546;48.170;11.724;2022-11-15T01:56:15;16.40;;;9.60;;
3487;SDS011;38546;48.170;11.724;2022-11-15T01:59:09;14.87;;;10.00;;
3487;SDS011;38546;48.170;11.724;2022-11-15T02:01:59;16.77;;;9.60;;
3487;SDS011;38546;48.170;11.724;2022-11-15T02:04:49;14.63;;;8.93;;
3487;SDS011;38546;48.170;11.724;2022-11-15T02:07:38;16.70;;;9.87;;
3487;SDS011;38546;48.170;11.724;2022-11-15T02:10:28;13.37;;;9.10;;
3487;SDS011;38546;48.170;11.724;2022-11-15T02:13:17;14.43;;;8.97;;
3487;SDS011;38546;48.170;11.724;2022-11-15T02:21:20;12.90;;;9.37;;
3487;SDS011;38546;48.170;11.724;2022-11-15T02:29:58;13.80;;;9.10;;
3487;SDS011;38546;48.170;11.724;2022-11-15T02:43:13;15.20;;;9.20;;
3487;SDS011;38546;48.170;11.724;2022-11-15T02:46:52;13.20;;;9.33;;
3487;SDS011;38546;48.170;11.724;2022-11-15T02:50:03;11.83;;;8.60;;
3487;SDS011;38546;48.170;11.724;2022-11-15T02:52:58;28.40;;;13.43;;
3487;SDS011;38546;48.170;11.724;2022-11-15T02:55:48;24.03;;;13.73;;
3487;SDS011;38546;48.170;11.724;2022-11-15T02:59:00;19.17;;;12.40;;
3487;SDS011;38546;48.170;11.724;2022-11-15T03:10:09;19.97;;;11.47;;
3487;SDS011;38546;48.170;11.724;2022-11-15T03:17:57;15.97;;;9.33;;
3487;SDS011;38546;48.170;11.724;2022-11-15T03:20:53;11.47;;;6.70;;
3487;SDS011;38546;48.170;11.724;2022-11-15T03:23:44;8.70;;;6.83;;
3487;SDS011;38546;48.170;11.724;2022-11-15T03:26:36;8.13;;;6.30;;
3487;SDS011;38546;48.170;11.724;2022-11-15T03:29:31;12.40;;;8.00;;
3487;SDS011;38546;48.170;11.724;2022-11-15T03:32:27;7.63;;;6.10;;
3487;SDS011;38546;48.170;11.724;2022-11-15T03:35:20;15.47;;;7.43;;
3487;SDS011;38546;48.170;11.724;2022-11-15T03:42:13;10.73;;;6.70;;
3487;SDS011;38546;48.170;11.724;2022-11-15T03:45:15;10.07;;;6.70;;
3487;SDS011;38546;48.170;11.724;2022-11-15T03:48:16;7.03;;;5.47;;
3487;SDS011;38546;48.170;11.724;2022-11-15T03:51:13;9.13;;;5.57;;
3487;SDS011;38546;48.170;11.724;2022-11-15T03:54:04;6.83;;;5.47;;
3487;SDS011;38546;48.170;11.724;2022-11-15T03:56:54;7.27;;;4.83;;
3487;SDS011;38546;48.170;11.724;2022-11-15T03:59:43;9.20;;;5.80;;
3487;SDS011;38546;48.170;11.724;2022-11-15T04:02:32;6.57;;;5.70;;
3487;SDS011;38546;48.170;11.724;2022-11-15T04:05:21;7.50;;;5.27;;
3487;SDS011;38546;48.170;11.724;2022-11-15T04:08:10;5.00;;;4.33;;
3487;SDS011;38546;48.170;11.724;2022-11-15T04:11:00;5.47;;;4.67;;
3487;SDS011;38546;48.170;11.724;2022-11-15T04:13:49;7.10;;;4.50;;
3487;SDS011;38546;48.170;11.724;2022-11-15T04:16:38;6.67;;;5.10;;
3487;SDS011;38546;48.170;11.724;2022-11-15T04:19:27;4.77;;;3.40;;
3487;SDS011;38546;48.170;11.724;2022-11-15T04:22:35;4.80;;;3.70;;
3487;SDS011;38546;48.170;11.724;2022-11-15T04:25:44;5.70;;;4.40;;
3487;SDS011;38546;48.170;11.724;2022-11-15T04:28:34;5.70;;;4.07;;
3487;SDS011;38546;48.170;11.724;2022-11-15T04:31:23;5.87;;;3.93;;
3487;SDS011;38546;48.170;11.724;2022-11-15T04:34:13;7.93;;;4.90;;
3487;SDS011;38546;48.170;11.724;2022-11-15T04:37:02;5.10;;;4.60;;
3487;SDS011;38546;48.170;11.724;2022-11-15T04:40:01;6.10;;;4.70;;
3487;SDS011;38546;48.170;11.724;2022-11-15T04:42:51;4.93;;;4.43;;
3487;SDS011;38546;48.170;11.724;2022-11-15T04:45:40;5.57;;;5.10;;
3487;SDS011;38546;48.170;11.724;2022-11-15T04:48:30;6.90;;;4.90;;
3487;SDS011;38546;48.170;11.724;2022-11-15T04:51:19;6.43;;;5.10;;
3487;SDS011;38546;48.170;11.724;2022-11-15T04:54:09;11.53;;;6.50;;
3487;SDS011;38546;48.170;11.724;2022-11-15T04:56:59;7.17;;;6.03;;
3487;SDS011;38546;48.170;11.724;2022-11-15T04:59:50;8.40;;;6.57;;
3487;SDS011;38546;48.170;11.724;2022-11-15T05:02:39;7.13;;;5.60;;
3487;SDS011;38546;48.170;11.724;2022-11-15T05:08:06;7.20;;;5.70;;
3487;SDS011;38546;48.170;11.724;2022-11-15T05:10:56;7.83;;;6.00;;
3487;SDS011;38546;48.170;11.724;2022-11-15T05:13:45;8.67;;;6.10;;
3487;SDS011;38546;48.170;11.724;2022-11-15T05:16:35;7.97;;;6.67;;
3487;SDS011;38546;48.170;11.724;2022-11-15T05:19:26;8.00;;;5.87;;
3487;SDS011;38546;48.170;11.724;2022-11-15T05:22:15;8.23;;;6.10;;
3487;SDS011;38546;48.170;11.724;2022-11-15T05:25:04;6.43;;;5.20;;
3487;SDS011;38546;48.170;11.724;2022-11-15T05:27:55;8.20;;;5.63;;
3487;SDS011;38546;48.170;11.724;2022-11-15T05:30:44;11.47;;;5.43;;
3487;SDS011;38546;48.170;11.724;2022-11-15T05:33:34;7.83;;;6.57;;
3487;SDS011;38546;48.170;11.724;2022-11-15T05:36:34;5.90;;;4.83;;
3487;SDS011;38546;48.170;11.724;2022-11-15T05:39:27;5.53;;;4.93;;
3487;SDS011;38546;48.170;11.724;2022-11-15T05:42:17;7.70;;;5.17;;
3487;SDS011;38546;48.170;11.724;2022-11-15T05:45:08;6.97;;;5.30;;
3487;SDS011;38546;48.170;11.724;2022-11-15T05:47:58;5.60;;;4.90;;
3487;SDS011;38546;48.170;11.724;2022-11-15T05:50:55;8.43;;;5.30;;
3487;SDS011;38546;48.170;11.724;2022-11-15T05:53:45;7.20;;;5.17;;
3487;SDS011;38546;48.170;11.724;2022-11-15T05:56:34;5.50;;;4.70;;
3487;SDS011;38546;48.170;11.724;2022-11-15T05:59:23;5.77;;;4.50;;
3487;SDS011;38546;48.170;11.724;2022-11-15T06:02:12;6.73;;;4.90;;
3487;SDS011;38546;48.170;11.724;2022-11-15T06:05:01;5.10;;;4.60;;
3487;SDS011;38546;48.170;11.724;2022-11-15T06:07:56;5.13;;;4.17;;
3487;SDS011;38546;48.170;11.724;2022-11-15T06:10:47;5.83;;;5.27;;
3487;SDS011;38546;48.170;11.724;2022-11-15T06:13:36;7.00;;;4.80;;
3487;SDS011;38546;48.170;11.724;2022-11-15T06:16:26;8.40;;;5.70;;
3487;SDS011;38546;48.170;11.724;2022-11-15T06:19:14;5.73;;;4.97;;
3487;SDS011;38546;48.170;11.724;2022-11-15T06:22:04;7.67;;;4.67;;
3487;SDS011;38546;48.170;11.724;2022-11-15T06:24:53;6.80;;;5.20;;
3487;SDS011;38546;48.170;11.724;2022-11-15T06:27:42;7.77;;;5.60;;
3487;SDS011;38546;48.170;11.724;2022-11-15T06:30:32;8.37;;;6.30;;
3487;SDS011;38546;48.170;11.724;2022-11-15T06:33:22;5.53;;;5.03;;
3487;SDS011;38546;48.170;11.724;2022-11-15T06:36:11;7.03;;;5.33;;
3487;SDS011;38546;48.170;11.724;2022-11-15T06:39:05;7.50;;;5.50;;
3487;SDS011;38546;48.170;11.724;2022-11-15T06:41:54;11.47;;;5.07;;
3487;SDS011;38546;48.170;11.724;2022-11-15T06:44:43;17.13;;;5.10;;
3487;SDS011;38546;48.170;11.724;2022-11-15T06:47:32;6.27;;;5.00;;
3487;SDS011;38546;48.170;11.724;2022-11-15T06:50:21;8.60;;;5.30;;
3487;SDS011;38546;48.170;11.724;2022-11-15T06:53:11;10.03;;;6.33;;
3487;SDS011;38546;48.170;11.724;2022-11-15T06:56:01;7.37;;;5.50;;
3487;SDS011;38546;48.170;11.724;2022-11-15T06:58:53;10.47;;;5.80;;
3487;SDS011;38546;48.170;11.724;2022-11-15T07:01:44;9.23;;;5.90;;
3487;SDS011;38546;48.170;11.724;2022-11-15T07:04:33;8.30;;;6.17;;
3487;SDS011;38546;48.170;11.724;2022-11-15T07:07:24;11.60;;;6.80;;
3487;SDS011;38546;48.170;11.724;2022-11-15T07:10:13;10.87;;;6.43;;
3487;SDS011;38546;48.170;11.724;2022-11-15T07:13:04;11.27;;;6.40;;
3487;SDS011;38546;48.170;11.724;2022-11-15T07:15:53;7.37;;;5.30;;
3487;SDS011;38546;48.170;11.724;2022-11-15T07:18:42;7.03;;;5.67;;
3487;SDS011;38546;48.170;11.724;2022-11-15T07:21:32;6.33;;;5.00;;
3487;SDS011;38546;48.170;11.724;2022-11-15T07:24:21;6.57;;;5.53;;
3487;SDS011;38546;48.170;11.724;2022-11-15T07:27:10;6.20;;;4.73;;
3487;SDS011;38546;48.170;11.724;2022-11-15T07:29:59;6.67;;;5.20;;
3487;SDS011;38546;48.170;11.724;2022-11-15T07:32:55;6.77;;;5.20;;
3487;SDS011;38546;48.170;11.724;2022-11-15T07:35:45;5.20;;;4.70;;
3487;SDS011;38546;48.170;11.724;2022-11-15T07:38:38;7.93;;;5.40;;
3487;SDS011;38546;48.170;11.724;2022-11-15T07:41:26;4.80;;;4.40;;
3487;SDS011;38546;48.170;11.724;2022-11-15T07:44:15;4.10;;;3.80;;
3487;SDS011;38546;48.170;11.724;2022-11-15T07:47:04;9.07;;;5.90;;
3487;SDS011;38546;48.170;11.724;2022-11-15T07:49:53;4.63;;;4.23;;
3487;SDS011;38546;48.170;11.724;2022-11-15T07:52:42;6.20;;;5.47;;
3487;SDS011;38546;48.170;11.724;2022-11-15T07:55:31;6.40;;;4.57;;
3487;SDS011;38546;48.170;11.724;2022-11-15T07:58:20;7.20;;;6.17;;
3487;SDS011;38546;48.170;11.724;2022-11-15T08:01:09;7.67;;;5.47;;
3487;SDS011;38546;48.170;11.724;2022-11-15T08:03:59;5.70;;;4.97;;
3487;SDS011;38546;48.170;11.724;2022-11-15T08:06:48;6.33;;;4.90;;
3487;SDS011;38546;48.170;11.724;2022-11-15T08:09:38;8.40;;;5.40;;
3487;SDS011;38546;48.170;11.724;2022-11-15T08:12:27;4.70;;;4.00;;
3487;SDS011;38546;48.170;11.724;2022-11-15T08:15:19;5.73;;;4.37;;
3487;SDS011;38546;48.170;11.724;2022-11-15T08:18:10;5.23;;;3.93;;
3487;SDS011;38546;48.170;11.724;2022-11-15T08:21:02;8.67;;;3.90;;
3487;SDS011;38546;48.170;11.724;2022-11-15T08:23:53;5.73;;;5.10;;
3487;SDS011;38546;48.170;11.724;2022-11-15T08:26:42;4.30;;;3.90;;
3487;SDS011;38546;48.170;11.724;2022-11-15T08:29:32;8.00;;;3.70;;
3487;SDS011;38546;48.170;11.724;2022-11-15T08:32:21;4.47;;;4.07;;
3487;SDS011;38546;48.170;11.724;2022-11-15T08:35:10;3.70;;;3.40;;
3487;SDS011;38546;48.170;11.724;2022-11-15T08:38:00;3.67;;;3.37;;
3487;SDS011;38546;48.170;11.724;2022-11-15T08:40:50;4.43;;;4.00;;
3487;SDS011;38546;48.170;11.724;2022-11-15T08:43:41;4.67;;;3.70;;
3487;SDS011;38546;48.170;11.724;2022-11-15T08:46:30;5.20;;;3.73;;
3487;SDS011;38546;48.170;11.724;2022-11-15T08:49:20;4.33;;;3.57;;
3487;SDS011;38546;48.170;11.724;2022-11-15T08:52:09;4.30;;;4.00;;
3487;SDS011;38546;48.170;11.724;2022-11-15T08:54:59;4.37;;;3.97;;
3487;SDS011;38546;48.170;11.724;2022-11-15T08:57:49;4.23;;;3.57;;
3487;SDS011;38546;48.170;11.724;2022-11-15T09:00:40;3.37;;;3.07;;
3487;SDS011;38546;48.170;11.724;2022-11-15T09:03:29;4.53;;;4.00;;
3487;SDS011;38546;48.170;11.724;2022-11-15T09:06:19;4.90;;;4.40;;
3487;SDS011;38546;48.170;11.724;2022-11-15T09:09:08;5.70;;;4.70;;
3487;SDS011;38546;48.170;11.724;2022-11-15T09:11:57;7.27;;;6.03;;
3487;SDS011;38546;48.170;11.724;2022-11-15T09:14:46;5.33;;;4.80;;
3487;SDS011;38546;48.170;11.724;2022-11-15T09:17:35;5.03;;;4.60;;
3487;SDS011;38546;48.170;11.724;2022-11-15T09:20:24;9.93;;;5.40;;
3487;SDS011;38546;48.170;11.724;2022-11-15T09:23:14;7.47;;;6.60;;
3487;SDS011;38546;48.170;11.724;2022-11-15T09:26:04;8.23;;;5.47;;
3487;SDS011;38546;48.170;11.724;2022-11-15T09:28:54;4.47;;;4.07;;
3487;SDS011;38546;48.170;11.724;2022-11-15T09:31:43;5.00;;;4.50;;
3487;SDS011;38546;48.170;11.724;2022-11-15T09:34:33;5.27;;;3.80;;
3487;SDS011;38546;48.170;11.724;2022-11-15T09:37:22;5.30;;;4.17;;
3487;SDS011;38546;48.170;11.724;2022-11-15T09:40:12;6.90;;;4.40;;
3487;SDS011;38546;48.170;11.724;2022-11-15T09:43:23;3.70;;;3.40;;
3487;SDS011;38546;48.170;11.724;2022-11-15T09:52:11;3.17;;;2.97;;
3487;SDS011;38546;48.170;11.724;2022-11-15T09:55:01;7.20;;;3.40;;
3487;SDS011;38546;48.170;11.724;2022-11-15T09:58:00;3.60;;;3.23;;
3487;SDS011;38546;48.170;11.724;2022-11-15T10:00:58;3.07;;;2.87;;
3487;SDS011;38546;48.170;11.724;2022-11-15T10:03:52;4.10;;;2.57;;
3487;SDS011;38546;48.170;11.724;2022-11-15T10:06:48;3.13;;;2.93;;
3487;SDS011;38546;48.170;11.724;2022-11-15T10:09:58;2.70;;;2.60;;
3487;SDS011;38546;48.170;11.724;2022-11-15T10:12:58;2.60;;;2.50;;
3487;SDS011;38546;48.170;11.724;2022-11-15T10:15:47;4.07;;;3.13;;
3487;SDS011;38546;48.170;11.724;2022-11-15T10:18:47;4.53;;;3.60;;
3487;SDS011;38546;48.170;11.724;2022-11-15T10:22:45;5.57;;;4.20;;
3487;SDS011;38546;48.170;11.724;2022-11-15T10:25:44;4.67;;;3.77;;
3487;SDS011;38546;48.170;11.724;2022-11-15T10:28:34;3.77;;;3.47;;
3487;SDS011;38546;48.170;11.724;2022-11-15T10:31:25;3.93;;;3.57;;
3487;SDS011;38546;48.170;11.724;2022-11-15T10:34:18;4.77;;;3.47;;
3487;SDS011;38546;48.170;11.724;2022-11-15T10:37:11;5.30;;;4.57;;
3487;SDS011;38546;48.170;11.724;2022-11-15T10:40:02;3.67;;;3.37;;
3487;SDS011;38546;48.170;11.724;2022-11-15T10:43:16;7.20;;;4.90;;
3487;SDS011;38546;48.170;11.724;2022-11-15T10:46:18;3.20;;;3.00;;
3487;SDS011;38546;48.170;11.724;2022-11-15T10:49:21;3.50;;;3.30;;
3487;SDS011;38546;48.170;11.724;2022-11-15T10:52:18;2.93;;;2.73;;
3487;SDS011;38546;48.170;11.724;2022-11-15T10:55:28;4.23;;;3.93;;
3487;SDS011;38546;48.170;11.724;2022-11-15T10:58:31;3.00;;;2.80;;
3487;SDS011;38546;48.170;11.724;2022-11-15T11:01:26;4.60;;;3.00;;
3487;SDS011;38546;48.170;11.724;2022-11-15T11:04:18;2.93;;;2.73;;
3487;SDS011;38546;48.170;11.724;2022-11-15T11:07:19;2.73;;;2.53;;
3487;SDS011;38546;48.170;11.724;2022-11-15T11:10:17;2.77;;;2.60;;
3487;SDS011;38546;48.170;11.724;2022-11-15T11:13:32;2.53;;;2.40;;
3487;SDS011;38546;48.170;11.724;2022-11-15T11:16:33;2.80;;;2.60;;
3487;SDS011;38546;48.170;11.724;2022-11-15T11:19:34;3.67;;;2.73;;
3487;SDS011;38546;48.170;11.724;2022-11-15T11:24:55;2.80;;;2.60;;
3487;SDS011;38546;48.170;11.724;2022-11-15T11:30:43;3.10;;;2.90;;
3487;SDS011;38546;48.170;11.724;2022-11-15T11:36:29;2.90;;;2.70;;
3487;SDS011;38546;48.170;11.724;2022-11-15T11:42:41;2.97;;;2.67;;
3487;SDS011;38546;48.170;11.724;2022-11-15T11:50:45;2.83;;;2.63;;
3487;SDS011;38546;48.170;11.724;2022-11-15T11:53:41;3.43;;;3.13;;
3487;SDS011;38546;48.170;11.724;2022-11-15T11:56:45;2.70;;;2.50;;
3487;SDS011;38546;48.170;11.724;2022-11-15T11:59:48;3.87;;;3.57;;
3487;SDS011;38546;48.170;11.724;2022-11-15T12:03:02;4.30;;;3.47;;
3487;SDS011;38546;48.170;11.724;2022-11-15T12:06:58;4.03;;;3.63;;
3487;SDS011;38546;48.170;11.724;2022-11-15T12:10:03;2.87;;;2.67;;
3487;SDS011;38546;48.170;11.724;2022-11-15T12:13:37;2.40;;;2.20;;
3487;SDS011;38546;48.170;11.724;2022-11-15T12:16:31;3.00;;;2.80;;
3487;SDS011;38546;48.170;11.724;2022-11-15T12:19:21;2.73;;;2.53;;
3487;SDS011;38546;48.170;11.724;2022-11-15T12:22:12;1.93;;;1.83;;
3487;SDS011;38546;48.170;11.724;2022-11-15T12:25:23;2.40;;;2.20;;
3487;SDS011;38546;48.170;11.724;2022-11-15T12:28:52;2.03;;;1.93;;
3487;SDS011;38546;48.170;11.724;2022-11-15T12:31:50;2.43;;;2.20;;
3487;SDS011;38546;48.170;11.724;2022-11-15T12:34:45;2.20;;;2.10;;
3487;SDS011;38546;48.170;11.724;2022-11-15T12:44:10;2.10;;;2.00;;
3487;SDS011;38546;48.170;11.724;2022-11-15T12:48:51;3.70;;;1.97;;
3487;SDS011;38546;48.170;11.724;2022-11-15T12:55:28;2.30;;;2.20;;
3487;SDS011;38546;48.170;11.724;2022-11-15T12:58:28;4.00;;;2.50;;
3487;SDS011;38546;48.170;11.724;2022-11-15T13:01:52;1.90;;;1.80;;
3487;SDS011;38546;48.170;11.724;2022-11-15T13:04:46;2.10;;;2.00;;
3487;SDS011;38546;48.170;11.724;2022-11-15T13:07:56;2.70;;;2.50;;
3487;SDS011;38546;48.170;11.724;2022-11-15T13:10:47;3.10;;;2.80;;
3487;SDS011;38546;48.170;11.724;2022-11-15T13:13:43;2.20;;;2.03;;
3487;SDS011;38546;48.170;11.724;2022-11-15T13:16:34;2.47;;;2.37;;
3487;SDS011;38546;48.170;11.724;2022-11-15T13:19:23;2.60;;;2.40;;
3487;SDS011;38546;48.170;11.724;2022-11-15T13:22:14;2.40;;;2.30;;
3487;SDS011;38546;48.170;11.724;2022-11-15T13:26:08;2.20;;;2.10;;
3487;SDS011;38546;48.170;11.724;2022-11-15T13:29:12;4.57;;;2.53;;
3487;SDS011;38546;48.170;11.724;2022-11-15T13:32:09;2.37;;;2.17;;
3487;SDS011;38546;48.170;11.724;2022-11-15T13:35:01;2.00;;;1.90;;
3487;SDS011;38546;48.170;11.724;2022-11-15T13:37:55;2.37;;;2.17;;
3487;SDS011;38546;48.170;11.724;2022-11-15T13:40:46;2.70;;;2.50;;
3487;SDS011;38546;48.170;11.724;2022-11-15T13:43:35;2.03;;;1.93;;
3487;SDS011;38546;48.170;11.724;2022-11-15T13:46:26;2.60;;;2.40;;
3487;SDS011;38546;48.170;11.724;2022-11-15T13:49:28;3.23;;;2.93;;
3487;SDS011;38546;48.170;11.724;2022-11-15T13:52:20;2.40;;;2.17;;
3487;SDS011;38546;48.170;11.724;2022-11-15T13:55:12;2.03;;;1.93;;
3487;SDS011;38546;48.170;11.724;2022-11-15T13:58:05;3.80;;;2.50;;
3487;SDS011;38546;48.170;11.724;2022-11-15T14:01:01;2.10;;;2.00;;
3487;SDS011;38546;48.170;11.724;2022-11-15T14:03:57;2.50;;;2.17;;
3487;SDS011;38546;48.170;11.724;2022-11-15T14:06:53;3.60;;;2.30;;
3487;SDS011;38546;48.170;11.724;2022-11-15T14:09:46;2.27;;;2.17;;
3487;SDS011;38546;48.170;11.724;2022-11-15T14:12:36;3.33;;;2.60;;
3487;SDS011;38546;48.170;11.724;2022-11-15T14:15:33;2.03;;;1.93;;
3487;SDS011;38546;48.170;11.724;2022-11-15T14:18:42;2.93;;;2.60;;
3487;SDS011;38546;48.170;11.724;2022-11-15T14:22:07;3.20;;;3.00;;
3487;SDS011;38546;48.170;11.724;2022-11-15T14:25:20;6.43;;;5.17;;
3487;SDS011;38546;48.170;11.724;2022-11-15T14:28:28;6.43;;;5.30;;
3487;SDS011;38546;48.170;11.724;2022-11-15T14:31:21;6.20;;;5.60;;
3487;SDS011;38546;48.170;11.724;2022-11-15T14:34:10;10.37;;;7.80;;
3487;SDS011;38546;48.170;11.724;2022-11-15T14:36:59;9.30;;;7.37;;
3487;SDS011;38546;48.170;11.724;2022-11-15T14:39:49;8.10;;;7.00;;
3487;SDS011;38546;48.170;11.724;2022-11-15T14:42:39;9.03;;;7.83;;
3487;SDS011;38546;48.170;11.724;2022-11-15T14:45:29;11.20;;;8.27;;
3487;SDS011;38546;48.170;11.724;2022-11-15T14:48:19;11.40;;;8.20;;
3487;SDS011;38546;48.170;11.724;2022-11-15T14:51:10;9.37;;;7.70;;
3487;SDS011;38546;48.170;11.724;2022-11-15T14:54:02;13.37;;;8.97;;
3487;SDS011;38546;48.170;11.724;2022-11-15T14:56:51;10.80;;;7.63;;
3487;SDS011;38546;48.170;11.724;2022-11-15T14:59:40;9.67;;;7.30;;
3487;SDS011;38546;48.170;11.724;2022-11-15T15:02:29;10.87;;;8.10;;
3487;SDS011;38546;48.170;11.724;2022-11-15T15:05:20;8.03;;;5.87;;
3487;SDS011;38546;48.170;11.724;2022-11-15T15:08:21;8.17;;;6.03;;
3487;SDS011;38546;48.170;11.724;2022-11-15T15:11:12;10.40;;;7.33;;
3487;SDS011;38546;48.170;11.724;2022-11-15T15:14:14;7.77;;;6.97;;
3487;SDS011;38546;48.170;11.724;2022-11-15T15:17:04;6.43;;;5.47;;
3487;SDS011;38546;48.170;11.724;2022-11-15T15:19:54;7.80;;;5.70;;
3487;SDS011;38546;48.170;11.724;2022-11-15T15:22:43;8.33;;;5.73;;
3487;SDS011;38546;48.170;11.724;2022-11-15T15:25:33;7.17;;;5.90;;
3487;SDS011;38546;48.170;11.724;2022-11-15T15:28:23;7.23;;;5.80;;
3487;SDS011;38546;48.170;11.724;2022-11-15T15:31:13;9.00;;;6.20;;
3487;SDS011;38546;48.170;11.724;2022-11-15T15:34:01;9.43;;;6.00;;
3487;SDS011;38546;48.170;11.724;2022-11-15T15:37:06;8.60;;;6.00;;
3487;SDS011;38546;48.170;11.724;2022-11-15T15:40:20;7.07;;;5.33;;
3487;SDS011;38546;48.170;11.724;2022-11-15T15:43:11;7.50;;;6.10;;
3487;SDS011;38546;48.170;11.724;2022-11-15T15:46:00;6.43;;;4.80;;
3487;SDS011;38546;48.170;11.724;2022-11-15T15:48:49;8.40;;;5.63;;
3487;SDS011;38546;48.170;11.724;2022-11-15T15:51:38;11.53;;;6.33;;
3487;SDS011;38546;48.170;11.724;2022-11-15T15:54:27;7.67;;;5.30;;
3487;SDS011;38546;48.170;11.724;2022-11-15T15:57:16;8.47;;;5.80;;
3487;SDS011;38546;48.170;11.724;2022-11-15T16:00:06;13.17;;;5.83;;
3487;SDS011;38546;48.170;11.724;2022-11-15T16:02:57;8.47;;;6.10;;
3487;SDS011;38546;48.170;11.724;2022-11-15T16:05:47;10.50;;;7.50;;
3487;SDS011;38546;48.170;11.724;2022-11-15T16:08:38;16.63;;;10.67;;
3487;SDS011;38546;48.170;11.724;2022-11-15T16:11:27;13.03;;;8.87;;
3487;SDS011;38546;48.170;11.724;2022-11-15T16:14:16;22.80;;;14.67;;
3487;SDS011;38546;48.170;11.724;2022-11-15T16:17:05;21.80;;;12.67;;
3487;SDS011;38546;48.170;11.724;2022-11-15T16:19:54;15.47;;;9.93;;
3487;SDS011;38546;48.170;11.724;2022-11-15T16:22:43;13.00;;;9.00;;
3487;SDS011;38546;48.170;11.724;2022-11-15T16:25:43;15.30;;;8.77;;
3487;SDS011;38546;48.170;11.724;2022-11-15T16:28:38;11.93;;;9.07;;
3487;SDS011;38546;48.170;11.724;2022-11-15T16:31:27;13.50;;;8.53;;
3487;SDS011;38546;48.170;11.724;2022-11-15T16:34:16;9.30;;;7.23;;
3487;SDS011;38546;48.170;11.724;2022-11-15T16:37:08;9.90;;;7.37;;
3487;SDS011;38546;48.170;11.724;2022-11-15T16:43:23;9.97;;;7.07;;
3487;SDS011;38546;48.170;11.724;2022-11-15T16:46:16;7.50;;;5.97;;
3487;SDS011;38546;48.170;11.724;2022-11-15T16:49:12;9.53;;;6.10;;
3487;SDS011;38546;48.170;11.724;2022-11-15T16:52:02;12.77;;;6.80;;
3487;SDS011;38546;48.170;11.724;2022-11-15T16:54:52;9.33;;;7.43;;
3487;SDS011;38546;48.170;11.724;2022-11-15T16:57:41;10.50;;;7.83;;
3487;SDS011;38546;48.170;11.724;2022-11-15T17:00:29;10.60;;;7.40;;
3487;SDS011;38546;48.170;11.724;2022-11-15T17:03:19;12.70;;;7.57;;
3487;SDS011;38546;48.170;11.724;2022-11-15T17:06:11;12.23;;;7.63;;
3487;SDS011;38546;48.170;11.724;2022-11-15T17:09:02;10.73;;;7.40;;
3487;SDS011;38546;48.170;11.724;2022-11-15T17:11:51;10.83;;;7.40;;
3487;SDS011;38546;48.170;11.724;2022-11-15T17:14:41;9.43;;;7.33;;
3487;SDS011;38546;48.170;11.724;2022-11-15T17:17:33;11.20;;;7.53;;
3487;SDS011;38546;48.170;11.724;2022-11-15T17:20:22;8.43;;;6.77;;
3487;SDS011;38546;48.170;11.724;2022-11-15T17:23:13;9.20;;;7.33;;
3487;SDS011;38546;48.170;11.724;2022-11-15T17:26:03;11.77;;;7.13;;
3487;SDS011;38546;48.170;11.724;2022-11-15T17:28:53;11.37;;;7.90;;
3487;SDS011;38546;48.170;11.724;2022-11-15T17:31:43;9.90;;;6.23;;
3487;SDS011;38546;48.170;11.724;2022-11-15T17:34:34;11.27;;;7.27;;
3487;SDS011;38546;48.170;11.724;2022-11-15T17:37:22;8.97;;;6.93;;
3487;SDS011;38546;48.170;11.724;2022-11-15T17:40:12;11.13;;;7.77;;
3487;SDS011;38546;48.170;11.724;2022-11-15T17:43:01;12.43;;;7.50;;
3487;SDS011;38546;48.170;11.724;2022-11-15T17:45:53;13.53;;;8.97;;
3487;SDS011;38546;48.170;11.724;2022-11-15T17:48:42;14.90;;;8.80;;
3487;SDS011;38546;48.170;11.724;2022-11-15T17:51:32;12.10;;;8.43;;
3487;SDS011;38546;48.170;11.724;2022-11-15T17:54:22;10.60;;;7.97;;
3487;SDS011;38546;48.170;11.724;2022-11-15T17:57:11;11.00;;;7.50;;
3487;SDS011;38546;48.170;11.724;2022-11-15T17:59:59;13.10;;;7.80;;
3487;SDS011;38546;48.170;11.724;2022-11-15T18:02:49;11.53;;;8.63;;
3487;SDS011;38546;48.170;11.724;2022-11-15T18:05:38;12.10;;;8.40;;
3487;SDS011;38546;48.170;11.724;2022-11-15T18:08:31;13.47;;;9.77;;
3487;SDS011;38546;48.170;11.724;2022-11-15T18:11:25;13.50;;;9.23;;
3487;SDS011;38546;48.170;11.724;2022-11-15T18:14:17;16.47;;;11.23;;
3487;SDS011;38546;48.170;11.724;2022-11-15T18:17:07;19.97;;;11.60;;
3487;SDS011;38546;48.170;11.724;2022-11-15T18:19:56;21.87;;;13.63;;
3487;SDS011;38546;48.170;11.724;2022-11-15T18:22:45;26.17;;;15.20;;
3487;SDS011;38546;48.170;11.724;2022-11-15T18:25:35;22.37;;;13.77;;
3487;SDS011;38546;48.170;11.724;2022-11-15T18:28:30;20.30;;;12.60;;
3487;SDS011;38546;48.170;11.724;2022-11-15T18:31:22;25.23;;;11.80;;
3487;SDS011;38546;48.170;11.724;2022-11-15T18:34:17;15.57;;;9.90;;
3487;SDS011;38546;48.170;11.724;2022-11-15T18:37:06;17.47;;;10.43;;
3487;SDS011;38546;48.170;11.724;2022-11-15T18:39:56;16.83;;;9.93;;
3487;SDS011;38546;48.170;11.724;2022-11-15T18:42:44;13.70;;;9.00;;